Latest Weather Observations for Barimunya

IDW60801

Issued at 5:33 pm WST Monday 17 December 2018 (issued every 10 minutes, with the page automatically refreshed every 10 minutes)

About weather observations | Map of weather stations | Latest weather observations for WA | Other Formats
Station Details ID: 505053 Name: BARIMUNYA Lat: -22.67 Lon: 119.16 Height: 629.17 m
Data from the previous 72 hours. | See also: Recent months for locations in Western Australia
Date/Time
WST
Temp
°C
App
Temp
°C
Dew
Point
°C
Rel
Hum
%
Delta-T
°C
Wind Press
QNH
hPa
Press
MSL
hPa
Rain since
9am
mm
Dir  Spd
km/h
Gust
km/h
Spd
kts
Gust
kts
17/05:30pm 30.5 25.2 5.0 20 13.7 SW 22 35 12 19 1008.3 1002.8 0.0
17/05:00pm 30.6 25.3 5.1 20 13.8 SW 22 35 12 19 1008.1 1002.6 0.0
17/04:30pm 31.4 25.9 5.8 20 14.0 SSW 24 37 13 20 1007.9 1002.4 0.0
17/04:00pm 30.5 25.3 5.7 21 13.5 SSW 22 35 12 19 1008.0 1002.5 0.0
17/03:30pm 30.9 24.7 6.0 21 13.6 SW 28 43 15 23 1008.2 1002.7 0.0
17/03:26pm 30.5 24.2 5.7 21 13.5 SSW 28 43 15 23 1008.1 1002.6 0.0
17/03:00pm 29.9 24.8 5.9 22 13.1 SW 22 35 12 19 1008.3 1002.8 0.0
17/02:30pm 30.3 24.6 4.9 20 13.6 WSW 24 39 13 21 1008.5 1003.0 0.0
17/02:00pm 30.7 24.7 5.2 20 13.8 SW 26 41 14 22 1008.6 1003.1 0.0
17/01:30pm 30.6 25.8 4.4 19 13.9 WSW 19 33 10 18 1009.2 1003.7 0.0
17/01:00pm 28.6 23.3 4.8 22 12.6 SSW 22 37 12 20 1009.4 1003.9 0.0
17/12:30pm 29.1 22.7 5.2 22 12.8 SW 28 41 15 22 1009.8 1004.3 0.0
17/12:00pm 28.6 23.8 5.5 23 12.4 SW 20 41 11 22 1010.0 1004.5 0.0
17/11:30am 27.3 22.3 4.4 23 12.0 SW 20 35 11 19 1010.2 1004.7 0.0
17/11:00am 27.5 22.3 5.7 25 11.7 WSW 22 37 12 20 1010.4 1004.9 0.0
17/10:30am 25.6 20.6 4.7 26 10.9 WSW 20 30 11 16 1010.8 1005.3 0.0
17/10:00am 25.4 21.0 4.5 26 10.8 WSW 17 26 9 14 1011.0 1005.5 0.0
17/09:30am 24.1 19.9 5.5 30 9.7 SW 17 30 9 16 1011.2 1005.7 0.0
17/09:00am 23.3 18.9 6.6 34 8.9 SW 19 28 10 15 1011.1 1005.6 0.0
17/08:30am 21.4 16.4 6.5 38 7.8 SW 22 37 12 20 1011.3 1005.8 0.0
17/08:00am 21.7 16.3 6.4 37 8.0 SW 24 33 13 18 1011.3 1005.8 0.0
17/07:30am 20.6 14.4 6.2 39 7.5 SW 28 35 15 19 1011.0 1005.5 0.0
17/07:00am 20.0 12.7 5.6 39 7.4 SW 33 43 18 23 1010.4 1004.9 0.0
17/06:30am 19.5 13.8 4.8 38 7.4 WSW 24 37 13 20 1010.0 1004.5 0.0
17/06:00am 19.1 14.3 4.5 38 7.3 WSW 19 28 10 15 1009.8 1004.3 0.0
17/05:30am 18.8 13.0 4.2 38 7.2 WSW 24 33 13 18 1009.4 1003.9 0.0
17/05:00am 19.0 13.3 4.7 39 7.1 WSW 24 33 13 18 1009.1 1003.6 0.0
17/04:30am 19.4 13.7 5.1 39 7.2 SW 24 35 13 19 1008.9 1003.3 0.0
17/04:00am 19.9 14.3 5.5 39 7.3 WSW 24 32 13 17 1008.6 1003.1 0.0
17/03:30am 20.4 14.9 6.0 39 7.4 WSW 24 35 13 19 1008.5 1003.0 0.0
17/03:00am 21.0 15.6 6.2 38 7.7 WSW 24 33 13 18 1008.0 1002.5 0.0
17/02:30am 21.6 15.6 7.1 39 7.7 SW 28 43 15 23 1007.8 1002.3 0.0
17/02:00am 22.2 15.5 7.2 38 8.0 WSW 32 39 17 21 1007.5 1001.9 0.0
17/01:30am 23.0 16.4 5.9 33 8.9 WSW 30 43 16 23 1007.4 1001.8 0.0
17/01:00am 23.6 18.9 6.0 32 9.3 WSW 20 32 11 17 1007.4 1001.8 0.0
17/12:30am 23.8 19.3 6.1 32 9.3 WSW 19 26 10 14 1007.4 1001.8 0.0
17/12:00am 24.5 19.9 6.3 31 9.7 WSW 20 30 11 16 1007.6 1002.1 0.0
 
Date/Time
WST
Temp
°C
App
Temp
°C
Dew
Point
°C
Rel
Hum
%
Delta-T
°C
Wind Press
QNH
hPa
Press
MSL
hPa
Rain since
9am
mm
Dir  Spd
km/h
Gust
km/h
Spd
kts
Gust
kts
16/11:30pm 24.9 19.1 6.1 30 10.0 WSW 26 39 14 21 1007.6 1002.1 0.0
16/11:00pm 25.6 19.7 5.8 28 10.5 WSW 26 39 14 21 1007.5 1001.9 0.0
16/10:30pm 25.9 19.8 4.9 26 11.0 WSW 26 37 14 20 1007.4 1001.8 0.0
16/10:00pm 26.2 20.2 3.5 23 11.6 WSW 24 33 13 18 1007.4 1001.8 0.0
16/09:30pm 26.8 20.7 2.7 21 12.2 WSW 24 32 13 17 1007.3 1001.7 0.0
16/09:00pm 27.4 20.6 1.0 18 13.0 WSW 26 39 14 21 1006.9 1001.4 0.0
16/08:30pm 28.2 20.9 0.0 16 13.7 WSW 28 37 15 20 1006.7 1001.2 0.0
16/08:00pm 28.8 21.6 0.5 16 14.0 WSW 28 43 15 23 1006.4 1000.9 0.0
16/07:30pm 29.6 22.3 0.2 15 14.5 WSW 28 37 15 20 1006.1 1000.6 0.0
16/07:00pm 30.3 22.7 0.8 15 14.8 WSW 30 43 16 23 1005.7 1000.1 0.0
16/06:30pm 31.3 23.1 0.6 14 15.4 WSW 33 44 18 24 1005.2 999.7 0.0
16/06:00pm 32.4 24.8 0.5 13 16.1 WSW 30 43 16 23 1004.8 999.3 0.0
16/05:30pm 33.4 25.4 0.1 12 16.8 WSW 32 41 17 22 1004.4 998.8 0.0
16/05:10pm 34.2 26.1 -0.4 11 17.4 WSW 32 52 17 28 1004.1 998.5 0.0
16/05:00pm 34.8 26.5 0.0 11 17.7 WSW 33 46 18 25 1004.0 998.4 0.0
16/04:49pm 35.1 27.1 0.2 11 17.8 WSW 32 50 17 27 1004.0 998.4 0.0
16/04:30pm 35.1 27.1 0.2 11 17.8 W 32 44 17 24 1003.8 998.2 0.0
16/04:00pm 36.9 31.0 1.6 11 18.7 W 22 35 12 19 1003.6 998.1 0.0
16/03:30pm 36.2 30.6 1.1 11 18.3 W 20 37 11 20 1004.0 998.4 0.0
16/03:00pm 36.2 30.4 2.3 12 18.1 W 22 35 12 19 1004.2 998.6 0.0
16/02:30pm 34.9 29.3 1.3 12 17.4 WNW 20 35 11 19 1004.4 998.8 0.0
16/02:00pm 35.0 29.2 0.2 11 17.8 NW 20 37 11 20 1004.9 999.4 0.0
16/01:30pm 35.4 29.3 0.5 11 17.9 WNW 22 37 12 20 1005.3 999.8 0.0
16/01:00pm 34.2 29.5 0.8 12 17.2 NW 15 28 8 15 1005.8 1000.2 0.0
16/12:30pm 34.5 28.9 1.0 12 17.2 NW 20 33 11 18 1006.3 1000.8 0.0
16/12:00pm 34.6 30.5 2.2 13 17.1 NNE 13 28 7 15 1006.5 1001.0 0.0
16/11:30am 34.2 28.9 1.9 13 16.8 NNW 19 28 10 15 1007.0 1001.5 0.0
16/11:00am 31.7 27.7 6.7 21 13.9 W 17 26 9 14 1007.6 1002.1 0.0
16/10:30am 31.9 27.7 8.2 23 13.5 W 20 32 11 17 1007.8 1002.3 0.0
16/10:00am 30.8 27.6 8.5 25 12.7 NW 15 30 8 16 1008.2 1002.7 0.0
16/09:30am 29.6 26.4 8.6 27 11.9 W 15 28 8 15 1008.5 1003.0 0.0
16/09:00am 30.1 26.4 9.6 28 11.9 W 19 26 10 14 1008.6 1003.1 0.0
16/08:30am 28.4 24.5 8.7 29 11.1 W 19 30 10 16 1008.5 1003.0 0.0
16/08:00am 28.0 25.1 9.8 32 10.5 WSW 15 22 8 12 1008.5 1003.0 0.0
16/07:30am 26.9 23.5 9.3 33 10.0 WSW 17 24 9 13 1008.4 1002.9 0.0
16/07:00am 26.1 22.8 9.5 35 9.4 WSW 17 22 9 12 1008.2 1002.7 0.0
16/06:30am 25.3 22.3 9.2 36 9.0 W 15 20 8 11 1008.0 1002.5 0.0
16/06:00am 24.3 22.0 9.1 38 8.5 WSW 11 19 6 10 1007.8 1002.3 0.0
16/05:30am 23.7 21.0 8.9 39 8.2 W 13 17 7 9 1007.3 1001.7 0.0
16/05:00am 23.9 20.8 8.7 38 8.4 W 15 19 8 10 1006.8 1001.3 0.0
16/04:30am 24.3 20.8 8.7 37 8.6 W 17 20 9 11 1006.4 1000.9 0.0
16/04:00am 24.5 21.7 8.5 36 8.9 W 13 17 7 9 1005.9 1000.3 0.0
16/03:30am 25.5 22.4 8.9 35 9.3 W 15 20 8 11 1005.8 1000.2 0.0
16/03:00am 25.9 22.8 8.8 34 9.6 W 15 20 8 11 1005.5 999.9 0.0
16/02:30am 26.7 23.3 9.1 33 9.9 WSW 17 22 9 12 1005.5 999.9 0.0
16/02:00am 27.0 23.5 8.9 32 10.2 WSW 17 22 9 12 1005.5 999.9 0.0
16/01:30am 27.2 23.5 8.1 30 10.6 WSW 17 20 9 11 1005.3 999.8 0.0
16/01:00am 27.9 24.1 7.7 28 11.2 WSW 17 19 9 10 1005.6 1000.0 0.0
16/12:30am 28.8 25.0 7.4 26 11.8 WSW 17 20 9 11 1005.8 1000.2 0.0
16/12:00am 29.1 25.6 7.1 25 12.2 WSW 15 19 8 10 1005.9 1000.3 0.0
 
Date/Time
WST
Temp
°C
App
Temp
°C
Dew
Point
°C
Rel
Hum
%
Delta-T
°C
Wind Press
QNH
hPa
Press
MSL
hPa
Rain since
9am
mm
Dir  Spd
km/h
Gust
km/h
Spd
kts
Gust
kts
15/11:30pm 29.9 26.0 7.2 24 12.6 WSW 17 24 9 13 1006.1 1000.6 0.0
15/11:00pm 30.6 26.2 6.5 22 13.3 WSW 19 28 10 15 1006.0 1000.4 0.0
15/10:30pm 31.3 26.4 4.9 19 14.2 SW 20 30 11 16 1006.0 1000.4 0.0
15/10:00pm 31.8 27.2 3.8 17 14.9 SW 17 22 9 12 1006.0 1000.4 0.0
15/09:30pm 32.4 27.4 3.4 16 15.3 SW 19 28 10 15 1005.9 1000.3 0.0
15/09:00pm 32.9 27.6 1.9 14 16.1 SW 19 28 10 15 1005.6 1000.0 0.0
15/08:30pm 33.3 28.5 0.1 12 16.7 WSW 15 20 8 11 1005.1 999.6 0.0
15/08:00pm 34.2 29.3 -0.4 11 17.4 WSW 15 22 8 12 1004.8 999.3 0.0
15/07:30pm 35.1 29.0 0.2 11 17.8 W 22 33 12 18 1004.4 998.8 0.0
15/07:00pm 36.1 28.9 1.0 11 18.3 W 28 39 15 21 1003.8 998.2 0.0
15/06:30pm 37.5 32.0 0.7 10 19.2 WSW 19 28 10 15 1003.2 997.7 0.0
15/06:00pm 38.8 32.8 -3.2 7 20.9 NNW 19 26 10 14 1002.9 997.3 0.0
15/05:30pm 39.3 33.7 -2.8 7 21.0 NNW 17 24 9 13 1002.6 997.0 0.0
15/05:00pm 40.1 35.3 -2.2 7 21.5 WNW 13 20 7 11 1002.5 996.9 0.0
15/04:30pm 40.1 33.6 -2.2 7 21.4 WNW 22 30 12 16 1002.5 996.9 0.0
15/04:00pm 40.6 35.0 0.0 8 21.4 NNW 19 32 10 17 1002.4 996.8 0.0
15/03:30pm 40.0 32.8 -2.3 7 21.4 NNW 26 46 14 25 1002.7 997.1 0.0
15/03:29pm 40.1 33.0 -4.3 6 21.8 NNW 24 46 13 25 1002.7 997.1 0.0
15/03:00pm 40.3 33.5 -2.1 7 21.6 NW 24 43 13 23 1003.0 997.4 0.0
15/02:30pm 40.6 34.8 0.0 8 21.3 NNW 20 33 11 18 1003.2 997.7 0.0
15/02:21pm 40.8 33.3 -1.7 7 21.8 NNW 28 50 15 27 1003.3 997.8 0.0
15/02:00pm 40.3 33.0 -0.3 8 21.3 NNW 28 43 15 23 1003.5 998.0 0.0
15/01:30pm 40.2 33.9 1.3 9 20.8 NNW 24 39 13 21 1003.9 998.3 0.0
15/01:11pm 41.6 34.7 2.3 9 21.4 N 28 54 15 29 1004.1 998.5 0.0
15/01:00pm 40.8 34.5 1.7 9 21.1 N 24 37 13 20 1004.4 998.8 0.0
15/12:30pm 39.7 32.5 0.9 9 20.5 NNW 28 39 15 21 1004.8 999.3 0.0
15/12:00pm 38.2 34.2 2.6 11 19.2 N 13 26 7 14 1005.2 999.7 0.0
15/11:30am 38.8 34.1 3.1 11 19.4 N 17 33 9 18 1005.8 1000.2 0.0
15/11:00am 37.8 33.9 3.5 12 18.7 NE 13 26 7 14 1006.3 1000.8 0.0
15/10:30am 37.0 32.8 4.0 13 18.0 NE 15 26 8 14 1006.7 1001.2 0.0
15/10:00am 36.2 33.9 5.5 15 17.2 ESE 7 20 4 11 1007.2 1001.6 0.0
15/09:30am 35.2 32.9 5.6 16 16.4 ESE 7 13 4 7 1007.6 1002.1 0.0
15/09:00am 34.5 32.2 5.9 17 15.9 W 7 11 4 6 1007.8 1002.3 0.0
15/08:30am 33.2 30.1 7.2 20 14.7 WNW 13 17 7 9 1008.0 1002.5 0.0
15/08:00am 31.8 28.6 6.8 21 13.9 W 13 17 7 9 1008.1 1002.6 0.0
15/07:30am 30.4 27.2 7.0 23 13.0 W 13 17 7 9 1008.2 1002.7 0.0
15/07:00am 29.5 25.4 6.2 23 12.7 W 17 20 9 11 1008.1 1002.6 0.0
15/06:30am 28.1 24.5 5.0 23 12.2 W 13 19 7 10 1008.0 1002.5 0.0
15/06:00am 27.0 23.2 4.1 23 11.9 W 13 19 7 10 1007.6 1002.1 0.0
15/05:30am 26.6 22.8 3.8 23 11.7 W 13 17 7 9 1007.4 1001.8 0.0
15/05:00am 26.5 23.7 3.1 22 11.9 W 7 13 4 7 1007.2 1001.6 0.0
15/04:30am 26.5 22.8 2.4 21 12.1 WNW 11 13 6 7 1006.8 1001.3 0.0
15/04:00am 27.2 24.1 1.6 19 12.8 WSW 7 11 4 6 1006.7 1001.2 0.0
15/03:30am 28.0 24.9 1.5 18 13.2 SW 7 9 4 5 1006.5 1001.0 0.0
15/03:00am 28.4 25.2 1.0 17 13.6 WSW 7 11 4 6 1006.4 1000.9 0.0
15/02:30am 27.9 24.8 1.4 18 13.2 WSW 7 9 4 5 1006.4 1000.9 0.0
15/02:00am 29.1 25.9 0.7 16 14.1 WSW 7 11 4 6 1006.5 1001.0 0.0
15/01:30am 28.4 26.8 2.6 19 13.1 CALM 0 0 0 0 1006.6 1001.1 0.0
15/01:00am 28.5 26.8 6.0 24 12.2 W 4 7 2 4 1006.7 1001.2 0.0
15/12:30am 30.0 27.4 6.0 22 13.1 W 9 11 5 6 1006.8 1001.3 0.0
15/12:00am 30.9 28.0 6.7 22 13.4 WNW 11 11 6 6 1007.3 1001.7 0.0
 
Date/Time
WST
Temp
°C
App
Temp
°C
Dew
Point
°C
Rel
Hum
%
Delta-T
°C
Wind Press
QNH
hPa
Press
MSL
hPa
Rain since
9am
mm
Dir  Spd
km/h
Gust
km/h
Spd
kts
Gust
kts
14/11:30pm 32.0 29.8 6.2 20 14.2 WNW 7 11 4 6 1007.7 1002.2 0.0
14/11:00pm 33.1 30.4 5.6 18 15.2 WNW 9 15 5 8 1007.7 1002.2 0.0
14/10:30pm 33.6 30.4 6.8 19 15.0 NW 13 15 7 8 1007.8 1002.3 0.0
14/10:00pm 33.9 30.2 7.8 20 14.9 N 17 20 9 11 1007.8 1002.3 0.0
14/09:30pm 35.4 31.0 7.5 18 16.0 NW 20 32 11 17 1007.5 1001.9 0.0
14/09:00pm 35.8 32.1 7.8 18 16.2 NNW 17 20 9 11 1007.4 1001.8 0.0
14/08:30pm 36.3 32.1 7.4 17 16.6 NNW 19 28 10 15 1007.4 1001.8 0.0
14/08:00pm 36.1 32.8 4.4 14 17.4 N 11 13 6 7 1007.2 1001.6 0.0
14/07:30pm 36.8 33.4 3.9 13 17.9 N 11 15 6 8 1007.0 1001.5 0.0
14/07:00pm 37.3 33.6 4.3 13 18.2 NNW 13 17 7 9 1006.9 1001.4 0.0
14/06:30pm 38.1 33.5 3.8 12 18.8 NW 17 26 9 14 1006.7 1001.2 0.0
14/06:00pm 38.7 33.6 4.2 12 19.1 NNW 20 26 11 14 1006.5 1001.0 0.0

Other Formats:

Comma delimited format used in spreadsheet applications
http://www.bom.gov.au/fwo/IDW60801/IDW60801.99313.axf

JavaScript Object Notation format (JSON) in row-major order
http://www.bom.gov.au/fwo/IDW60801/IDW60801.99313.json